Time;durP1;ratioP1;P1;durP2;ratioP2;P2;SDS_P1;SDS_P2;PMS_P1;PMS_P2;Temp;Humidity;BMP_temperature;BMP_pressure;BME280_temperature;BME280_humidity;BME280_pressure;Samples;Min_cycle;Max_cycle;Signal;HPM_P1;HPM_P2
2021/06/06 00:02:09;;;;;;;12.27;4.97;;;18.10;97.10;;;;;;5013306;28;20056;-86
2021/06/06 00:04:39;;;;;;;10.18;4.68;;;18.00;97.00;;;;;;5013246;28;20017;-85
2021/06/06 00:07:05;;;;;;;9.50;5.07;;;18.10;97.00;;;;;;5013007;28;20018;-85
2021/06/06 00:09:31;;;;;;;9.52;4.90;;;18.10;97.00;;;;;;5014840;28;20030;-85
2021/06/06 00:11:56;;;;;;;10.13;5.25;;;18.00;97.00;;;;;;5012148;28;20022;-85
2021/06/06 00:14:26;;;;;;;8.75;4.95;;;18.10;97.10;;;;;;4995298;28;20052;-85
2021/06/06 00:16:56;;;;;;;10.15;5.35;;;18.00;97.10;;;;;;5013403;28;20080;-85
2021/06/06 00:19:23;;;;;;;8.90;5.05;;;18.10;97.10;;;;;;5013054;28;20033;-85
2021/06/06 00:21:50;;;;;;;8.85;4.75;;;18.10;97.10;;;;;;5012882;28;20025;-85
2021/06/06 00:24:20;;;;;;;10.57;4.80;;;18.10;97.10;;;;;;4995116;28;20478;-85
2021/06/06 00:26:46;;;;;;;9.40;5.30;;;18.20;97.10;;;;;;5012934;28;20018;-85
2021/06/06 00:29:12;;;;;;;9.68;5.03;;;18.10;97.20;;;;;;4980145;28;20073;-85
2021/06/06 00:31:38;;;;;;;10.55;5.30;;;18.10;97.40;;;;;;5011908;28;20061;-85
2021/06/06 00:34:05;;;;;;;8.68;4.85;;;18.20;97.10;;;;;;5011644;28;20053;-85
2021/06/06 00:36:32;;;;;;;10.10;6.03;;;18.10;97.00;;;;;;5012712;28;20049;-84
2021/06/06 00:38:58;;;;;;;11.32;5.47;;;18.10;97.00;;;;;;5012966;28;20084;-84
2021/06/06 00:41:26;;;;;;;10.52;5.75;;;18.10;97.00;;;;;;5014813;28;20022;-84
2021/06/06 00:43:52;;;;;;;10.25;5.40;;;18.10;97.10;;;;;;5012826;28;20072;-84
2021/06/06 00:46:20;;;;;;;10.63;5.18;;;18.00;97.10;;;;;;5012561;28;20614;-85
2021/06/06 00:48:46;;;;;;;11.38;5.55;;;18.10;97.10;;;;;;5012502;28;20053;-85
2021/06/06 00:51:52;;;;;;;9.60;5.05;;;18.10;97.20;;;;;;5011667;28;20021;-85
2021/06/06 00:54:38;;;;;;;10.77;5.50;;;18.10;97.20;;;;;;5002992;28;20034;-85
2021/06/06 00:57:05;;;;;;;10.85;5.40;;;18.10;97.20;;;;;;5012571;28;20025;-84
2021/06/06 00:59:33;;;;;;;11.25;5.40;;;18.10;97.40;;;;;;5011194;28;20029;-84
2021/06/06 01:01:59;;;;;;;9.77;5.35;;;18.10;97.10;;;;;;5007693;28;20033;-84
2021/06/06 01:04:25;;;;;;;9.93;5.63;;;18.10;97.10;;;;;;5012319;28;20022;-85
2021/06/06 01:06:53;;;;;;;10.48;5.13;;;18.10;97.20;;;;;;5011110;28;20034;-85
2021/06/06 01:09:22;;;;;;;11.20;5.00;;;18.10;97.20;;;;;;5014039;28;20040;-85
2021/06/06 01:12:05;;;;;;;10.07;5.45;;;18.20;97.20;;;;;;5012054;28;20110;-85
2021/06/06 01:15:05;;;;;;;9.27;5.18;;;18.20;97.20;;;;;;5012171;28;20028;-85
2021/06/06 01:17:37;;;;;;;9.85;5.47;;;18.10;97.20;;;;;;5012315;28;20018;-85
2021/06/06 01:20:12;;;;;;;11.32;5.53;;;18.20;97.40;;;;;;5012764;28;20026;-85
2021/06/06 01:22:50;;;;;;;;;;;18.20;97.30;;;;;;5012033;28;20409;-85
2021/06/06 01:25:29;;;;;;;10.70;5.13;;;18.30;97.40;;;;;;5016039;28;19920;-85
2021/06/06 01:28:02;;;;;;;8.65;4.88;;;18.30;97.30;;;;;;5016131;28;20377;-85
2021/06/06 01:30:32;;;;;;;10.10;5.60;;;18.30;97.30;;;;;;5016044;28;20052;-85
2021/06/06 01:33:10;;;;;;;9.93;5.85;;;18.40;97.20;;;;;;5015549;28;20014;-85
2021/06/06 01:35:47;;;;;;;11.82;6.30;;;18.30;97.20;;;;;;5015936;28;20032;-85
2021/06/06 01:38:20;;;;;;;10.27;5.93;;;18.30;97.20;;;;;;5015935;28;20064;-84
2021/06/06 01:40:48;;;;;;;10.55;6.05;;;18.30;97.20;;;;;;5018968;28;20018;-84
2021/06/06 01:43:19;;;;;;;11.90;6.07;;;18.30;97.30;;;;;;4998032;28;20367;-84
2021/06/06 01:45:49;;;;;;;11.88;6.32;;;18.30;97.30;;;;;;5015774;28;20022;-84
2021/06/06 01:48:15;;;;;;;10.23;5.88;;;18.40;97.40;;;;;;4998045;28;20036;-83
2021/06/06 01:50:48;;;;;;;10.63;6.10;;;18.40;97.40;;;;;;5016303;28;20120;-83
2021/06/06 01:53:15;;;;;;;10.20;5.72;;;18.40;97.40;;;;;;5009209;28;20014;-83
2021/06/06 01:55:46;;;;;;;11.77;6.18;;;18.40;97.30;;;;;;4998318;28;20030;-83
2021/06/06 01:58:13;;;;;;;11.80;6.28;;;18.40;97.60;;;;;;5015881;28;20018;-83
2021/06/06 02:00:44;;;;;;;11.50;6.13;;;18.40;97.30;;;;;;4997478;28;20563;-85
2021/06/06 02:03:10;;;;;;;11.48;6.18;;;18.40;97.20;;;;;;5015520;28;20026;-85
2021/06/06 02:05:36;;;;;;;10.60;6.20;;;18.40;97.30;;;;;;4997802;28;20378;-85
2021/06/06 02:08:06;;;;;;;10.93;5.80;;;18.40;97.30;;;;;;5018803;28;20022;-85
2021/06/06 02:10:37;;;;;;;10.90;6.38;;;18.50;97.30;;;;;;5015315;28;20565;-85
2021/06/06 02:13:13;;;;;;;12.02;6.50;;;18.50;97.30;;;;;;5015126;28;20018;-85
2021/06/06 02:15:39;;;;;;;10.77;6.57;;;18.50;97.30;;;;;;5015295;28;20029;-84
2021/06/06 02:18:07;;;;;;;12.07;6.20;;;18.50;97.20;;;;;;5015925;28;20030;-84
2021/06/06 02:20:38;;;;;;;12.32;6.75;;;18.40;97.20;;;;;;5015007;28;20018;-84
2021/06/06 02:23:04;;;;;;;12.10;6.95;;;18.40;97.20;;;;;;5015581;28;20044;-84
2021/06/06 02:25:30;;;;;;;16.33;7.10;;;18.40;97.20;;;;;;4997820;28;20430;-84
2021/06/06 02:28:14;;;;;;;13.27;6.90;;;18.30;97.20;;;;;;5015168;28;20533;-84
2021/06/06 02:30:46;;;;;;;11.40;6.93;;;18.30;97.20;;;;;;5014368;28;20057;-84
2021/06/06 02:33:34;;;;;;;12.00;6.93;;;18.30;97.20;;;;;;5014548;28;20028;-84
2021/06/06 02:36:04;;;;;;;11.77;7.15;;;18.40;97.30;;;;;;5014117;28;20010;-86
2021/06/06 02:38:47;;;;;;;10.40;6.85;;;18.40;97.30;;;;;;5014469;28;20202;-85
2021/06/06 02:41:24;;;;;;;12.55;7.40;;;18.30;97.20;;;;;;5018800;28;20493;-85
2021/06/06 02:44:08;;;;;;;11.00;6.65;;;18.30;97.30;;;;;;5008014;28;20021;-85
2021/06/06 02:46:37;;;;;;;12.93;7.37;;;18.30;97.30;;;;;;5014495;28;20478;-85
2021/06/06 02:49:11;;;;;;;13.48;7.22;;;18.30;97.20;;;;;;5014219;28;20033;-85
2021/06/06 02:52:03;;;;;;;11.82;7.05;;;18.20;97.10;;;;;;5014344;28;20041;-86
2021/06/06 02:55:00;;;;;;;13.20;7.88;;;18.30;97.20;;;;;;5014662;28;20374;-86
2021/06/06 02:57:29;;;;;;;14.43;8.10;;;18.20;97.20;;;;;;4995575;28;20030;-86
2021/06/06 03:00:00;;;;;;;12.55;7.72;;;18.20;97.30;;;;;;5014299;28;20014;-86
2021/06/06 03:02:36;;;;;;;13.40;7.93;;;18.20;97.30;;;;;;5013939;28;20101;-86
2021/06/06 03:05:04;;;;;;;13.07;8.15;;;18.20;97.40;;;;;;5014774;28;20033;-87
2021/06/06 03:07:41;;;;;;;15.20;8.48;;;18.30;97.50;;;;;;5014552;28;20351;-86
2021/06/06 03:10:09;;;;;;;14.27;8.68;;;18.30;97.50;;;;;;5016840;28;20112;-87
2021/06/06 03:12:37;;;;;;;11.80;7.30;;;18.30;97.40;;;;;;5014250;28;20013;-86
2021/06/06 03:15:07;;;;;;;13.57;7.97;;;18.30;97.50;;;;;;5014006;28;20034;-86
2021/06/06 03:17:39;;;;;;;13.98;7.72;;;18.40;97.50;;;;;;5013655;28;20097;-86
2021/06/06 03:20:11;;;;;;;12.73;7.53;;;18.40;97.50;;;;;;5013911;28;20034;-86
2021/06/06 03:22:39;;;;;;;15.98;8.60;;;18.50;97.50;;;;;;5013793;28;20366;-86
2021/06/06 03:25:12;;;;;;;13.70;8.95;;;18.50;97.50;;;;;;5013874;28;20032;-86
2021/06/06 03:27:41;;;;;;;13.85;8.35;;;18.50;97.40;;;;;;5013593;28;20036;-86
2021/06/06 03:30:30;;;;;;;14.40;8.10;;;18.50;97.40;;;;;;5013505;28;20046;-86
2021/06/06 03:32:57;;;;;;;15.38;8.93;;;18.50;97.40;;;;;;5013551;28;20025;-86
2021/06/06 03:35:24;;;;;;;16.50;9.82;;;18.50;97.40;;;;;;5013919;28;20026;-86
2021/06/06 03:37:49;;;;;;;17.15;9.50;;;18.50;97.40;;;;;;5013667;28;20508;-86
2021/06/06 03:40:16;;;;;;;15.55;9.60;;;18.50;97.40;;;;;;4999720;28;20025;-85
2021/06/06 03:42:42;;;;;;;15.60;8.95;;;18.50;97.40;;;;;;5015221;28;20351;-85
2021/06/06 03:45:10;;;;;;;15.60;9.77;;;18.50;97.40;;;;;;5013757;28;20033;-85
2021/06/06 03:47:36;;;;;;;14.38;9.10;;;18.50;97.40;;;;;;4995189;28;20041;-85
2021/06/06 03:50:04;;;;;;;17.48;12.35;;;18.60;97.50;;;;;;4995590;28;20097;-85
2021/06/06 03:52:33;;;;;;;20.75;14.27;;;18.60;97.50;;;;;;5006183;28;20025;-85
2021/06/06 03:55:00;;;;;;;26.88;19.25;;;18.60;97.50;;;;;;4995920;28;20053;-84
2021/06/06 03:57:26;;;;;;;17.02;10.90;;;18.60;97.50;;;;;;4979325;28;20023;-84
2021/06/06 03:59:51;;;;;;;16.05;9.75;;;18.70;97.50;;;;;;4994087;28;20025;-84
2021/06/06 04:02:17;;;;;;;14.82;9.75;;;18.70;97.60;;;;;;5013068;28;20105;-84
2021/06/06 04:04:43;;;;;;;16.48;10.13;;;18.70;97.50;;;;;;4995534;28;20037;-84
2021/06/06 04:07:09;;;;;;;15.38;9.45;;;18.80;97.40;;;;;;4995576;28;20483;-84
2021/06/06 04:09:35;;;;;;;16.73;10.18;;;18.80;97.40;;;;;;5018016;28;20034;-84
2021/06/06 04:12:01;;;;;;;16.08;9.20;;;18.70;97.50;;;;;;4995084;28;20029;-84
2021/06/06 04:14:26;;;;;;;15.57;9.88;;;18.70;97.40;;;;;;4995832;28;20034;-84
2021/06/06 04:16:52;;;;;;;16.65;9.82;;;18.80;97.40;;;;;;5012540;28;20030;-84
2021/06/06 04:19:17;;;;;;;15.10;9.57;;;18.80;97.40;;;;;;4995728;28;20096;-84
2021/06/06 04:21:43;;;;;;;18.67;10.20;;;18.70;97.40;;;;;;5012754;28;20033;-84
2021/06/06 04:24:09;;;;;;;14.75;9.07;;;18.70;97.30;;;;;;5013151;28;20041;-84
2021/06/06 04:26:35;;;;;;;14.77;8.82;;;18.70;97.40;;;;;;4995830;28;20030;-84
2021/06/06 04:29:01;;;;;;;17.15;8.95;;;18.80;97.50;;;;;;4994712;28;20030;-84
2021/06/06 04:31:27;;;;;;;15.40;10.10;;;18.80;97.50;;;;;;5013297;28;20048;-85
2021/06/06 04:33:52;;;;;;;15.10;9.20;;;18.80;97.50;;;;;;5000701;28;20057;-85
2021/06/06 04:36:18;;;;;;;14.95;9.50;;;18.80;97.40;;;;;;4995306;28;20485;-85
2021/06/06 04:38:44;;;;;;;16.08;8.70;;;18.80;97.40;;;;;;5012399;28;20505;-85
2021/06/06 04:41:12;;;;;;;12.90;8.35;;;18.90;97.40;;;;;;5016930;28;20022;-85
2021/06/06 04:43:38;;;;;;;15.85;9.55;;;18.90;97.50;;;;;;5012728;28;20546;-86
2021/06/06 04:46:05;;;;;;;13.82;8.30;;;18.90;97.50;;;;;;5012902;28;20030;-85
2021/06/06 04:48:40;;;;;;;16.17;8.70;;;18.90;97.50;;;;;;5012609;28;20018;-85
2021/06/06 04:51:26;;;;;;;14.40;8.60;;;18.90;97.30;;;;;;5012439;28;20382;-85
2021/06/06 04:53:53;;;;;;;13.85;9.05;;;18.90;97.40;;;;;;5012179;28;20398;-85
2021/06/06 04:56:21;;;;;;;12.95;8.20;;;18.90;97.50;;;;;;4995519;28;20433;-85
2021/06/06 04:58:47;;;;;;;23.13;15.55;;;19.00;97.50;;;;;;5015573;28;20057;-85
2021/06/06 05:01:13;;;;;;;14.68;9.70;;;19.00;97.50;;;;;;4999830;28;20058;-85
2021/06/06 05:03:39;;;;;;;14.48;8.50;;;19.10;97.50;;;;;;4998962;28;20449;-86
2021/06/06 05:06:05;;;;;;;13.45;8.63;;;19.10;97.50;;;;;;5016723;28;20058;-85
2021/06/06 05:08:31;;;;;;;13.05;8.23;;;19.10;97.50;;;;;;5003341;28;20022;-86
2021/06/06 05:10:57;;;;;;;14.63;8.52;;;19.10;97.50;;;;;;5016329;28;20070;-86
2021/06/06 05:13:23;;;;;;;12.95;8.38;;;19.10;97.50;;;;;;5016509;28;20084;-86
2021/06/06 05:15:51;;;;;;;13.38;8.25;;;19.10;97.40;;;;;;4998232;28;20401;-85
2021/06/06 05:18:17;;;;;;;15.10;8.75;;;19.20;97.50;;;;;;5016129;28;20029;-85
2021/06/06 05:20:46;;;;;;;13.65;8.55;;;19.20;97.60;;;;;;4998863;28;20030;-85
2021/06/06 05:23:12;;;;;;;12.77;7.70;;;19.30;97.70;;;;;;5016531;28;20053;-85
2021/06/06 05:25:40;;;;;;;13.82;7.72;;;19.40;97.50;;;;;;5016178;28;20076;-85
2021/06/06 05:28:09;;;;;;;12.82;7.50;;;19.30;97.50;;;;;;5015830;28;20032;-86
2021/06/06 05:30:37;;;;;;;12.68;7.68;;;19.40;97.50;;;;;;5015992;28;20053;-85
2021/06/06 05:33:03;;;;;;;13.55;7.90;;;19.30;97.30;;;;;;4998505;28;20026;-84
2021/06/06 05:35:31;;;;;;;12.75;7.85;;;19.40;97.60;;;;;;5016012;28;20492;-84
2021/06/06 05:37:57;;;;;;;13.70;8.40;;;19.30;97.40;;;;;;4998317;28;20489;-83
2021/06/06 05:40:25;;;;;;;12.00;7.70;;;19.30;97.40;;;;;;5020217;28;20022;-84
2021/06/06 05:42:51;;;;;;;13.30;8.13;;;19.30;97.40;;;;;;5015852;28;20021;-83
2021/06/06 05:45:18;;;;;;;13.93;8.43;;;19.30;97.30;;;;;;5015365;28;20033;-84
2021/06/06 05:47:44;;;;;;;13.38;8.13;;;19.30;97.30;;;;;;5015909;28;20057;-85
2021/06/06 05:50:12;;;;;;;13.18;7.90;;;19.30;97.50;;;;;;5015613;28;20466;-83
2021/06/06 05:52:37;;;;;;;13.50;8.38;;;19.30;97.50;;;;;;4998068;28;20080;-83
2021/06/06 05:55:05;;;;;;;12.77;8.45;;;19.30;97.40;;;;;;5015187;28;20037;-83
2021/06/06 05:57:31;;;;;;;13.38;8.27;;;19.20;97.30;;;;;;5001811;28;20474;-84
2021/06/06 05:59:56;;;;;;;14.23;8.63;;;19.30;97.40;;;;;;5015414;28;20093;-84
2021/06/06 06:02:22;;;;;;;16.13;8.93;;;19.20;97.40;;;;;;5015558;28;20048;-83
2021/06/06 06:04:47;;;;;;;13.63;8.43;;;19.20;97.30;;;;;;5015452;28;20022;-84
2021/06/06 06:07:13;;;;;;;13.32;8.18;;;19.20;97.40;;;;;;5015261;28;20490;-84
2021/06/06 06:09:41;;;;;;;14.20;8.75;;;19.20;97.40;;;;;;5023038;28;20103;-82
2021/06/06 06:12:07;;;;;;;12.75;7.60;;;19.20;97.40;;;;;;5016961;28;20060;-83
2021/06/06 06:14:33;;;;;;;12.05;7.32;;;19.20;97.40;;;;;;5015254;28;20485;-82
2021/06/06 06:16:59;;;;;;;14.13;8.65;;;19.20;97.50;;;;;;5015320;28;20041;-82
2021/06/06 06:19:25;;;;;;;13.13;8.38;;;19.20;97.40;;;;;;5015462;28;20022;-81
2021/06/06 06:21:50;;;;;;;13.32;7.70;;;19.20;97.50;;;;;;4997977;28;20033;-82
2021/06/06 06:24:16;;;;;;;16.55;8.23;;;19.20;97.60;;;;;;5014995;28;20026;-81
2021/06/06 06:26:42;;;;;;;12.70;7.88;;;19.30;97.50;;;;;;5015455;28;20017;-81
2021/06/06 06:29:09;;;;;;;12.82;7.95;;;19.30;97.60;;;;;;5026003;28;20092;-82
2021/06/06 06:31:35;;;;;;;14.45;8.20;;;19.40;97.70;;;;;;4999400;28;20037;-83
2021/06/06 06:34:02;;;;;;;13.88;7.88;;;19.60;98.00;;;;;;4997167;28;20121;-82
2021/06/06 06:36:27;;;;;;;13.68;7.78;;;19.70;97.90;;;;;;5015608;28;20057;-81
2021/06/06 06:38:54;;;;;;;15.27;8.32;;;19.70;97.60;;;;;;5018286;28;20474;-81
2021/06/06 06:41:26;;;;;;;13.95;8.35;;;19.60;97.50;;;;;;5035296;28;20465;-81
2021/06/06 06:43:52;;;;;;;13.35;8.05;;;19.70;97.50;;;;;;5035222;28;20030;-81
2021/06/06 06:46:18;;;;;;;11.98;7.57;;;19.80;97.70;;;;;;5035002;28;20381;-81
2021/06/06 06:48:46;;;;;;;14.20;8.02;;;19.80;97.70;;;;;;5035122;28;20029;-80
2021/06/06 06:51:12;;;;;;;13.75;7.50;;;19.90;97.80;;;;;;5035062;28;20033;-80
2021/06/06 06:53:39;;;;;;;13.73;8.70;;;19.90;97.70;;;;;;5017220;28;20025;-80
2021/06/06 06:56:05;;;;;;;12.57;7.93;;;20.00;97.70;;;;;;5035038;28;20064;-80
2021/06/06 06:58:31;;;;;;;12.73;8.00;;;20.10;97.80;;;;;;5035018;28;20033;-80
2021/06/06 07:00:57;;;;;;;13.00;8.00;;;20.20;97.80;;;;;;5034852;28;20032;-80
2021/06/06 07:03:30;;;;;;;15.80;8.48;;;20.20;97.60;;;;;;5035018;28;20075;-81
2021/06/06 07:05:57;;;;;;;11.95;7.22;;;20.20;97.70;;;;;;5028020;28;20026;-81
2021/06/06 07:08:30;;;;;;;12.38;7.45;;;20.30;97.90;;;;;;5034691;28;20044;-81
2021/06/06 07:10:57;;;;;;;13.60;8.48;;;20.40;97.70;;;;;;5034521;28;20029;-81
2021/06/06 07:13:23;;;;;;;15.38;8.27;;;20.40;97.40;;;;;;5033666;28;20025;-81
2021/06/06 07:15:50;;;;;;;16.35;8.45;;;20.30;97.70;;;;;;5034713;28;20092;-81
2021/06/06 07:18:21;;;;;;;13.88;8.65;;;20.40;97.60;;;;;;5025698;28;20319;-80
2021/06/06 07:20:50;;;;;;;12.98;8.35;;;20.60;98.00;;;;;;5014990;28;20022;-81
2021/06/06 07:23:17;;;;;;;13.88;8.00;;;20.80;98.50;;;;;;5015268;28;20446;-81
2021/06/06 07:25:44;;;;;;;11.80;7.00;;;21.10;98.80;;;;;;5023207;28;20373;-81
2021/06/06 07:28:12;;;;;;;12.45;7.18;;;21.40;98.90;;;;;;5034653;28;20021;-81
2021/06/06 07:30:46;;;;;;;13.02;7.43;;;21.80;98.80;;;;;;5022784;28;20379;-81
2021/06/06 07:33:14;;;;;;;13.02;7.40;;;22.00;98.60;;;;;;5014835;28;20076;-81
2021/06/06 07:35:40;;;;;;;13.95;7.47;;;22.10;98.30;;;;;;5014533;28;20030;-81
2021/06/06 07:38:06;;;;;;;13.48;7.22;;;22.20;98.10;;;;;;5014601;28;20105;-81
2021/06/06 07:40:39;;;;;;;12.13;7.07;;;22.20;97.60;;;;;;5020932;28;20025;-81
2021/06/06 07:43:05;;;;;;;11.05;6.75;;;22.10;97.30;;;;;;5035143;28;20029;-81
2021/06/06 07:45:31;;;;;;;11.52;6.72;;;22.00;97.10;;;;;;5034936;28;20076;-82
2021/06/06 07:47:57;;;;;;;11.93;7.30;;;21.90;97.20;;;;;;5034588;28;20018;-81
2021/06/06 07:50:29;;;;;;;11.80;6.85;;;22.00;97.40;;;;;;5034244;28;20164;-81
2021/06/06 07:52:55;;;;;;;12.25;6.95;;;22.10;97.90;;;;;;5034244;28;20049;-82
2021/06/06 07:55:23;;;;;;;11.98;6.93;;;22.20;97.80;;;;;;5034010;28;20038;-81
2021/06/06 07:57:49;;;;;;;12.38;6.47;;;22.40;98.30;;;;;;5033957;28;20033;-82
2021/06/06 08:00:19;;;;;;;10.60;6.70;;;22.70;98.60;;;;;;5029622;28;20026;-81
2021/06/06 08:02:46;;;;;;;11.02;6.60;;;22.90;98.60;;;;;;5025169;28;20025;-82
2021/06/06 08:05:12;;;;;;;11.20;6.70;;;23.30;98.80;;;;;;5034151;28;20041;-81
2021/06/06 08:07:38;;;;;;;11.05;5.90;;;23.50;98.60;;;;;;5033607;28;20029;-80
2021/06/06 08:10:07;;;;;;;11.70;6.30;;;23.70;98.30;;;;;;5034034;28;20038;-81
2021/06/06 08:12:32;;;;;;;10.10;6.13;;;23.80;97.90;;;;;;5033860;28;20461;-82
2021/06/06 08:14:58;;;;;;;10.63;6.47;;;23.80;97.80;;;;;;5034170;28;20112;-80
2021/06/06 08:17:24;;;;;;;9.60;6.15;;;23.90;97.80;;;;;;5033728;28;20029;-80
2021/06/06 08:19:51;;;;;;;9.60;5.53;;;23.90;97.10;;;;;;5015116;28;20026;-80
2021/06/06 08:22:18;;;;;;;10.10;6.50;;;23.80;97.10;;;;;;5010995;28;20538;-80
2021/06/06 08:24:44;;;;;;;10.55;6.57;;;23.80;97.40;;;;;;5013795;28;20482;-80
2021/06/06 08:27:10;;;;;;;10.60;6.65;;;23.80;97.20;;;;;;5013863;28;20018;-80
2021/06/06 08:29:36;;;;;;;15.13;10.18;;;23.80;97.20;;;;;;5013468;28;20099;-80
2021/06/06 08:32:03;;;;;;;9.32;5.72;;;23.60;96.90;;;;;;5013417;28;20029;-80
2021/06/06 08:34:29;;;;;;;9.80;5.80;;;23.70;97.00;;;;;;5012583;28;20501;-80
2021/06/06 08:36:59;;;;;;;9.38;5.40;;;23.60;97.00;;;;;;5013699;28;20029;-80
2021/06/06 08:39:30;;;;;;;11.05;6.13;;;23.60;97.30;;;;;;5013966;28;20474;-81
2021/06/06 08:42:05;;;;;;;9.52;5.35;;;23.80;97.70;;;;;;5028958;28;20076;-82
2021/06/06 08:44:38;;;;;;;11.80;5.90;;;24.00;98.40;;;;;;5026286;28;20056;-82
2021/06/06 08:47:14;;;;;;;9.55;5.78;;;24.40;98.50;;;;;;5029452;28;20068;-83
2021/06/06 08:49:53;;;;;;;10.52;5.45;;;24.80;98.80;;;;;;5030419;28;20488;-82
2021/06/06 08:52:37;;;;;;;9.98;5.72;;;25.00;98.00;;;;;;5013436;28;20034;-81
2021/06/06 08:55:30;;;;;;;10.27;5.15;;;25.20;98.10;;;;;;5031812;28;20064;-81
2021/06/06 08:58:19;;;;;;;11.05;4.75;;;25.30;97.80;;;;;;5013437;28;20164;-80
2021/06/06 09:00:55;;;;;;;8.98;4.60;;;25.50;97.70;;;;;;5013360;28;20017;-80
2021/06/06 09:03:27;;;;;;;8.77;4.53;;;25.60;97.90;;;;;;5019576;28;20022;-81
2021/06/06 09:06:20;;;;;;;8.68;4.82;;;25.70;97.40;;;;;;5002734;28;20029;-81
2021/06/06 09:08:46;;;;;;;8.90;5.22;;;25.70;97.20;;;;;;5024792;28;20034;-82
2021/06/06 09:11:15;;;;;;;9.05;4.60;;;25.60;97.20;;;;;;5002794;28;20046;-82
2021/06/06 09:13:41;;;;;;;8.43;4.55;;;25.60;97.10;;;;;;5014329;28;20018;-82
2021/06/06 09:16:25;;;;;;;8.20;4.20;;;25.50;96.40;;;;;;5014348;28;20483;-82
2021/06/06 09:19:11;;;;;;;8.80;4.75;;;25.30;96.60;;;;;;5015222;28;20048;-82
2021/06/06 09:21:50;;;;;;;8.88;4.72;;;25.20;96.60;;;;;;5014837;28;20022;-81
2021/06/06 09:24:25;;;;;;;8.75;4.82;;;25.10;96.40;;;;;;5020451;28;20504;-81
2021/06/06 09:26:51;;;;;;;9.35;5.05;;;25.10;96.60;;;;;;5033497;28;20072;-83
2021/06/06 09:29:23;;;;;;;8.93;4.82;;;25.10;96.80;;;;;;5034878;28;20509;-83
2021/06/06 09:31:50;;;;;;;9.05;4.53;;;25.10;96.90;;;;;;5034679;28;20040;-82
2021/06/06 09:34:22;;;;;;;9.77;4.82;;;25.30;97.20;;;;;;5015808;28;20025;-81
2021/06/06 09:37:19;;;;;;;8.18;4.30;;;25.30;97.20;;;;;;5009882;28;20025;-82
2021/06/06 09:39:51;;;;;;;8.30;4.38;;;25.60;97.70;;;;;;4994770;28;20087;-81
2021/06/06 09:42:28;;;;;;;8.13;4.50;;;25.70;97.30;;;;;;4996047;28;20166;-81
2021/06/06 09:45:08;;;;;;;8.95;4.88;;;25.70;96.80;;;;;;5015409;28;20102;-82
2021/06/06 09:47:34;;;;;;;7.55;3.90;;;25.60;96.50;;;;;;5023276;28;20026;-80
2021/06/06 09:50:08;;;;;;;8.52;4.18;;;25.60;96.90;;;;;;5024634;28;20038;-81
2021/06/06 09:52:42;;;;;;;8.82;4.35;;;25.50;96.30;;;;;;5034007;28;20051;-82
2021/06/06 09:55:27;;;;;;;9.15;4.40;;;25.40;96.70;;;;;;5024661;28;20025;-82
2021/06/06 09:58:26;;;;;;;9.27;3.95;;;25.60;96.80;;;;;;5036250;28;20384;-82
2021/06/06 10:00:54;;;;;;;7.60;4.00;;;25.60;96.80;;;;;;5036172;28;20026;-82
2021/06/06 10:03:22;;;;;;;8.80;4.00;;;25.60;96.60;;;;;;5034503;28;20359;-83
2021/06/06 10:05:49;;;;;;;11.77;8.38;;;25.90;97.60;;;;;;5021694;28;20528;-83
2021/06/06 10:08:26;;;;;;;8.07;4.20;;;26.10;97.40;;;;;;5022917;28;20025;-82
2021/06/06 10:10:54;;;;;;;7.80;4.15;;;26.10;96.30;;;;;;5036150;28;20071;-82
2021/06/06 10:13:26;;;;;;;6.57;3.58;;;25.70;95.20;;;;;;5035965;28;20028;-82
2021/06/06 10:15:58;;;;;;;7.40;4.05;;;25.40;95.40;;;;;;5025548;28;20029;-83
2021/06/06 10:18:38;;;;;;;8.15;4.18;;;25.40;96.00;;;;;;5015972;28;20498;-82
2021/06/06 10:21:16;;;;;;;7.70;4.10;;;25.20;95.90;;;;;;5032700;28;20030;-82
2021/06/06 10:23:49;;;;;;;8.02;3.95;;;25.30;96.40;;;;;;5036604;28;20481;-83
2021/06/06 10:26:21;;;;;;;7.53;4.22;;;25.30;96.30;;;;;;5036968;28;20057;-83
2021/06/06 10:29:00;;;;;;;8.18;4.07;;;25.40;96.60;;;;;;5035608;28;20533;-82
2021/06/06 10:31:37;;;;;;;10.10;4.50;;;25.60;97.00;;;;;;5032779;28;20037;-82
2021/06/06 10:34:12;;;;;;;7.57;4.18;;;25.80;97.20;;;;;;5016181;28;20028;-83
2021/06/06 10:36:40;;;;;;;7.13;3.95;;;26.00;97.10;;;;;;5028187;28;20098;-83
2021/06/06 10:39:08;;;;;;;7.53;3.80;;;26.30;97.40;;;;;;5035389;28;20039;-83
2021/06/06 10:41:57;;;;;;;6.45;3.42;;;26.40;96.90;;;;;;5035141;28;20030;-82
2021/06/06 10:44:58;;;;;;;7.80;3.88;;;26.60;96.90;;;;;;5032146;28;20025;-82
2021/06/06 10:47:40;;;;;;;7.53;3.70;;;26.70;96.70;;;;;;5027263;28;20497;-82
2021/06/06 10:50:30;;;;;;;8.30;3.53;;;26.80;96.50;;;;;;5026547;28;20034;-83
2021/06/06 10:53:16;;;;;;;7.38;3.80;;;27.00;97.00;;;;;;5015584;28;20049;-83
2021/06/06 10:55:57;;;;;;;6.97;3.55;;;27.20;96.90;;;;;;4999749;28;20409;-83
2021/06/06 10:58:44;;;;;;;7.93;3.85;;;27.40;97.10;;;;;;5016144;28;20026;-84
2021/06/06 11:01:36;;;;;;;8.93;3.88;;;27.80;97.30;;;;;;5015180;28;20126;-84
2021/06/06 11:04:27;;;;;;;6.63;3.85;;;28.30;97.60;;;;;;4989969;28;20129;-84
2021/06/06 11:07:31;;;;;;;7.60;4.10;;;28.70;97.50;;;;;;4995320;28;20029;-84
2021/06/06 11:10:33;;;;;;;5.68;2.95;;;29.20;97.80;;;;;;5026548;28;20033;-84
2021/06/06 11:13:31;;;;;;;5.60;3.13;;;29.60;97.00;;;;;;5033930;28;20042;-84
2021/06/06 11:16:19;;;;;;;5.45;3.17;;;29.80;96.70;;;;;;5034287;28;20033;-82
2021/06/06 11:18:55;;;;;;;5.47;2.80;;;30.00;96.30;;;;;;5016890;28;20033;-82
2021/06/06 11:21:32;;;;;;;5.93;3.03;;;30.30;96.90;;;;;;5034621;28;20076;-82
2021/06/06 11:24:01;;;;;;;4.47;2.47;;;30.90;97.70;;;;;;5034578;28;20025;-82
2021/06/06 11:26:31;;;;;;;4.60;2.65;;;31.70;98.20;;;;;;5034545;28;20485;-82
2021/06/06 11:29:19;;;;;;;5.28;2.67;;;31.70;95.70;;;;;;5034318;28;20060;-82
2021/06/06 11:32:17;;;;;;;5.10;2.85;;;31.50;95.30;;;;;;5034756;28;20039;-82
2021/06/06 11:35:06;;;;;;;6.70;3.40;;;31.40;95.30;;;;;;5034532;28;20018;-82
2021/06/06 11:38:00;;;;;;;8.65;3.55;;;31.20;94.80;;;;;;5023911;28;20440;-82
2021/06/06 11:40:30;;;;;;;6.97;3.60;;;30.90;94.40;;;;;;5026244;28;20048;-82
2021/06/06 11:43:10;;;;;;;5.90;3.20;;;30.70;94.40;;;;;;5034198;28;20092;-83
2021/06/06 11:45:40;;;;;;;7.82;3.67;;;30.40;93.80;;;;;;5033661;28;20036;-82
2021/06/06 11:48:11;;;;;;;11.23;4.20;;;30.00;93.90;;;;;;5029965;28;20036;-81
2021/06/06 11:50:47;;;;;;;7.65;4.13;;;29.70;94.10;;;;;;5034119;28;20104;-81
2021/06/06 11:53:24;;;;;;;6.63;3.72;;;29.30;93.70;;;;;;5034059;28;20152;-82
2021/06/06 11:55:52;;;;;;;8.27;4.00;;;28.90;93.70;;;;;;5033831;28;20029;-82
2021/06/06 11:58:22;;;;;;;8.82;4.00;;;28.60;93.80;;;;;;5033957;28;20021;-82
2021/06/06 12:01:04;;;;;;;9.65;5.10;;;28.30;93.90;;;;;;5034129;28;20101;-82
2021/06/06 12:03:33;;;;;;;8.85;4.68;;;27.60;92.60;;;;;;5033641;28;20017;-82
2021/06/06 12:06:26;;;;;;;7.88;4.22;;;27.00;92.70;;;;;;5033482;28;20493;-82
2021/06/06 12:08:56;;;;;;;11.23;4.50;;;26.50;93.00;;;;;;5033203;28;20022;-83
2021/06/06 12:11:29;;;;;;;9.30;4.50;;;26.20;93.80;;;;;;5033617;28;20067;-84
2021/06/06 12:14:14;;;;;;;9.60;4.43;;;26.00;93.90;;;;;;5033778;28;20057;-82
2021/06/06 12:17:00;;;;;;;9.82;4.50;;;25.60;93.60;;;;;;5016549;28;20476;-85
2021/06/06 12:19:35;;;;;;;10.55;4.35;;;25.30;93.20;;;;;;5028442;28;20124;-84
2021/06/06 12:22:14;;;;;;;9.02;4.18;;;24.80;93.20;;;;;;5015052;28;20030;-84
2021/06/06 12:24:40;;;;;;;10.65;6.32;;;24.40;93.20;;;;;;5014170;28;20394;-84
2021/06/06 12:27:21;;;;;;;10.00;4.47;;;24.00;93.50;;;;;;5014005;28;20026;-84
2021/06/06 12:29:54;;;;;;;8.57;4.65;;;23.80;93.90;;;;;;5013762;28;20030;-84
2021/06/06 12:32:37;;;;;;;8.05;4.00;;;23.60;94.40;;;;;;5013869;28;20034;-84
2021/06/06 12:35:17;;;;;;;8.20;4.18;;;23.60;94.80;;;;;;5021987;28;20385;-84
2021/06/06 12:37:43;;;;;;;7.28;3.70;;;23.60;95.10;;;;;;5033143;28;20052;-84
2021/06/06 12:40:13;;;;;;;7.45;3.75;;;23.60;95.10;;;;;;5032966;28;20036;-84
2021/06/06 12:42:39;;;;;;;7.55;3.40;;;23.60;95.10;;;;;;5032037;28;20033;-84
2021/06/06 12:45:08;;;;;;;5.47;2.92;;;23.60;95.20;;;;;;5015155;28;20025;-84
2021/06/06 12:47:40;;;;;;;4.90;2.60;;;23.70;95.20;;;;;;5018018;28;20434;-83
2021/06/06 12:50:11;;;;;;;6.78;3.03;;;23.70;95.30;;;;;;5023773;28;20037;-82
2021/06/06 12:52:54;;;;;;;5.55;3.00;;;23.70;95.10;;;;;;5013515;28;20026;-84
2021/06/06 12:55:31;;;;;;;5.10;2.50;;;23.70;95.50;;;;;;5013516;28;20097;-84
2021/06/06 12:58:00;;;;;;;5.25;2.80;;;23.70;95.40;;;;;;5013166;28;20034;-84
2021/06/06 13:00:35;;;;;;;5.45;2.83;;;23.80;95.70;;;;;;5013633;28;20080;-84
2021/06/06 13:03:03;;;;;;;6.45;3.15;;;23.90;95.90;;;;;;5013447;28;20022;-84
2021/06/06 13:05:32;;;;;;;6.88;3.60;;;24.10;96.20;;;;;;5025875;28;20021;-84